Hlavní strana
METAR-TAF:

METAR-TAF

Letiště :

Pickens, Jižní Karolína, Spojené státy americké

zeměpisná šířka: 34-48-36N, zeměpisná délka: 082-42-10W, výška: 309 m

Aktuální stav počasí

Zpráva byla vytvořena před 12 minutami, v 17:15 UTC
Východoseverovýchodní vítr 7 kt
Teplota 10°C
Vlhkost vzduchu 62%
Tlak 1020 hPa
Viditelnost: 16.1 km
Polojasno ve výšce 4800 ft
Polojasno ve výšce 6000 ft
Zataženo ve výšce 9500 ft

METAR: KLQK 151715Z AUTO 06007KT 10SM SCT048 SCT060 OVC095 10/03 A3013 RMK AO2 T01010027

Čas: 12:27 (17:27 UTC)


TAF: chybějící

Stav a předpovědi počasí z více než 4 000 letišť (zprávy METAR a TAF).

Červené a žluté tečky na mapě představují dostupné meteorologické stanice.

Když kurzor umístíte na tečku, zobrazí se název stanice.

Pak kliknutím zobrazíte stav a předpověď počasí.

Chcete-li změnit mapu, kliknutím na zelené tlačítko se znaménkem +mapu přiblížíte, kliknutím na zelené tlačítko se znaménkem – mapu oddálíte a kliknutím na zelené šipky přejdete na sousední mapy.


METAR-TAF: